Stations météo

réclame
Mon MeteoGroup
Wilhelminadorp aws, Pays-Bas (6323): Température de l'air & dewpoint: 19.06.2018 21:00:00 - 25.06.2018 21:00:00 (CEST)Wilhelminadorp aws, Pays-Bas (6323): Température de l'air 5cm & Température de l'air -5cm: 19.06.2018 21:00:00 - 25.06.2018 21:00:00 (CEST)Wilhelminadorp aws, Pays-Bas (6323): Température de l'air -20cm & Température de l'air -100cm: 19.06.2018 21:00:00 - 25.06.2018 21:00:00 (CEST)Wilhelminadorp aws, Pays-Bas (6323): Vitesse du vent & gusts: 19.06.2018 21:00:00 - 25.06.2018 21:00:00 (CEST)Wilhelminadorp aws, Pays-Bas (6323): Direction du vent: 19.06.2018 21:00:00 - 25.06.2018 21:00:00 (CEST)Wilhelminadorp aws, Pays-Bas (6323): reduced air pressure: 19.06.2018 21:00:00 - 25.06.2018 21:00:00 (CEST)Wilhelminadorp aws, Pays-Bas (6323): Quantités de précipitations: 19.06.2018 21:00:00 - 25.06.2018 21:00:00 (CEST)
Date & Time tt [°C] td [°C] tt 5cm [°C] tt -5cm [°C] tt -20cm [°C] tt -100cm [°C] ff [km/h] ff [knt] fx [km/h] fx [knt] dd ppp [hPa] rr [mm]
25.06.2018 21:00:00 16,3 11,8 15,9 20,9 19,7 15,8 14 8 25 14 N 1026,0 0,0
25.06.2018 20:00:00 17,9 12,6 18,5 21,3 19,7 15,8 14 8 25 14 N 1026,0 0,0
25.06.2018 19:00:00 19,0 12,6 20,2 21,5 19,5 15,8 14 8 25 14 N 1025,9 0,0
25.06.2018 18:00:00 19,1 13,3 20,7 21,6 19,2 15,8 18 10 29 16 N 1026,0 0,0
25.06.2018 17:00:00 20,1 13,2 21,9 21,4 18,9 15,8 14 8 22 12 NNW 1026,1 0,0
25.06.2018 16:00:00 20,1 13,9 22,1 20,9 18,5 15,8 14 8 22 12 N 1026,2 0,0
25.06.2018 15:00:00 19,6 14,2 22,0 20,3 18,2 15,8 14 8 22 12 N 1026,4 0,0
25.06.2018 14:00:00 19,1 13,9 21,4 19,4 17,9 15,8 14 8 22 12 NNW 1026,4 0,0
25.06.2018 13:00:00 18,1 13,8 20,5 18,6 17,7 15,8 11 6 25 14 NNW 1026,5 0,0
25.06.2018 12:00:00 17,1 13,3 19,4 18,0 17,6 15,8 11 6 18 10 N 1026,7 0,0
25.06.2018 11:00:00 15,8 13,1 17,0 17,7 17,6 15,8 7 4 18 10 N 1026,5 0,0
25.06.2018 10:00:00 15,8 13,2 16,5 17,6 17,6 15,8 11 6 22 12 NNW 1026,1 0,0
25.06.2018 09:00:00 15,4 12,7 16,0 17,5 17,6 15,8 14 8 22 12 N 1025,7 0,0
25.06.2018 08:00:00 15,1 12,7 15,5 17,4 17,7 15,8 11 6 18 10 N 1025,6 0,0
25.06.2018 07:00:00 14,8 12,7 14,7 17,5 17,8 15,8 11 6 14 8 N 1025,1 0,0
25.06.2018 06:00:00 14,3 12,7 14,2 17,6 17,9 15,8 11 6 14 8 NNW 1024,7 0,0
25.06.2018 05:00:00 14,7 12,4 14,4 17,7 18,0 15,8 11 6 18 10 N 1024,6 0,0
25.06.2018 04:00:00 14,5 12,2 14,4 17,8 18,1 15,8 11 6 18 10 N 1024,7 0,0
25.06.2018 03:00:00 14,5 12,0 14,4 17,9 18,2 15,8 14 8 22 12 N 1024,9 0,0
25.06.2018 02:00:00 14,3 12,0 14,1 18,1 18,3 15,8 11 6 22 12 N 1024,9 0,0
25.06.2018 01:00:00 14,4 11,6 14,1 18,3 18,5 15,8 14 8 22 12 N 1024,8 0,0
25.06.2018 00:00:00 14,7 11,4 14,3 18,5 18,6 15,8 11 6 25 14 NNE 1024,7 0,0
24.06.2018 23:00:00 14,4 11,6 13,8 18,8 18,7 15,8 14 8 22 12 N 1024,9 0,0
24.06.2018 22:00:00 14,1 10,1 13,1 19,2 18,8 15,8 14 8 22 12 N 1024,8 0,0
24.06.2018 21:00:00 15,7 8,8 15,3 19,5 18,8 15,8 18 10 25 14 NNW 1024,6 0,0
24.06.2018 20:00:00 16,0 7,8 16,0 19,9 18,8 15,8 18 10 25 14 N 1024,6 0,0
24.06.2018 19:00:00 16,6 9,6 17,0 20,1 18,7 15,8 18 10 29 16 N 1024,8 0,0
24.06.2018 18:00:00 16,9 10,3 17,9 20,2 18,6 15,8 18 10 32 18 N 1025,0 0,0
24.06.2018 17:00:00 17,2 11,6 18,3 20,2 18,3 15,8 22 12 32 18 N 1025,2 0,0
24.06.2018 16:00:00 17,7 10,6 19,7 19,9 18,0 15,8 22 12 29 16 N 1025,1 0,0
24.06.2018 15:00:00 18,4 11,5 19,6 19,4 17,7 15,8 18 10 25 14 NNW 1025,1 0,0
24.06.2018 14:00:00 17,8 9,9 19,8 18,8 17,5 15,8 14 8 25 14 N 1025,2 0,0
24.06.2018 13:00:00 17,5 10,7 19,4 18,2 17,2 15,8 18 10 29 16 NNW 1025,3 0,0
24.06.2018 12:00:00 17,7 10,3 19,1 17,7 17,1 15,8 14 8 29 16 N 1025,1 0,0
24.06.2018 11:00:00 16,9 10,1 18,8 17,2 17,0 15,8 14 8 25 14 N 1025,1 0,0
24.06.2018 10:00:00 16,1 10,6 16,7 16,9 17,0 15,8 14 8 22 12 N 1024,8 0,0
24.06.2018 09:00:00 15,3 10,7 15,2 16,6 17,0 15,8 11 6 18 10 N 1024,7 0,0
24.06.2018 08:00:00 14,5 10,9 14,2 16,6 17,1 15,8 14 8 22 12 N 1024,7 0,0
24.06.2018 07:00:00 13,3 11,6 12,8 16,6 17,2 15,8 11 6 14 8 NNW 1024,3 0,0
24.06.2018 06:00:00 12,4 11,0 11,6 16,7 17,4 15,8 11 6 18 10 NNW 1023,9 0,0
24.06.2018 05:00:00 11,9 10,8 10,7 16,9 17,5 15,8 11 6 14 8 NW 1023,9 0,0
24.06.2018 04:00:00 11,0 10,4 10,4 17,1 17,7 15,8 7 4 11 6 NW 1024,2 0,0
24.06.2018 03:00:00 11,5 10,4 10,8 17,4 17,8 15,8 7 4 14 8 NW 1024,6 0,0
24.06.2018 02:00:00 11,7 10,4 10,9 17,6 18,0 15,8 11 6 14 8 NW 1024,9 0,0
24.06.2018 01:00:00 12,0 10,4 11,5 17,9 18,1 15,8 11 6 18 10 NW 1025,4 0,0
24.06.2018 00:00:00 12,9 10,5 12,3 18,3 18,2 15,8 14 8 18 10 NW 1025,4 0,0
23.06.2018 23:00:00 12,8 10,7 11,8 18,6 18,4 15,8 7 4 14 8 NW 1025,7 0,0
23.06.2018 22:00:00 13,7 11,7 13,3 19,0 18,4 15,8 11 6 14 8 NW 1025,5 0,0
23.06.2018 21:00:00 15,2 11,9 15,1 19,3 18,4 15,8 7 4 22 12 NNW 1025,4 0,0
23.06.2018 20:00:00 16,2 10,4 16,2 19,7 18,4 15,8 14 8 29 16 NW 1025,7 0,0
23.06.2018 19:00:00 17,7 9,6 18,5 19,8 18,2 15,8 18 10 25 14 NNW 1025,9 0,0
23.06.2018 18:00:00 17,3 9,8 18,1 19,9 18,0 15,8 14 8 25 14 WNW 1026,1 0,0
23.06.2018 17:00:00 19,2 11,3 21,2 19,7 17,7 15,9 14 8 25 14 WNW 1026,4 0,0
23.06.2018 16:00:00 19,3 10,3 21,2 19,3 17,3 15,9 14 8 25 14 WNW 1027,0 0,0
23.06.2018 15:00:00 19,7 9,2 22,0 18,9 17,0 15,9 14 8 25 14 W 1027,3 0,0
23.06.2018 14:00:00 19,4 6,7 21,7 18,1 16,6 15,9 14 8 22 12 W 1028,0 0,0
23.06.2018 13:00:00 18,6 7,7 20,7 17,3 16,2 15,9 11 6 18 10 WNW 1028,2 0,0
23.06.2018 12:00:00 17,5 6,0 20,0 16,5 16,0 15,9 11 6 18 10 NW 1028,5 0,0
23.06.2018 11:00:00 17,2 6,6 18,4 15,8 15,9 15,9 11 6 18 10 NW 1028,6 0,0
23.06.2018 10:00:00 15,6 9,8 16,7 15,3 15,8 15,9 14 8 22 12 NW 1028,8 0,0
23.06.2018 09:00:00 14,8 10,2 14,9 15,0 15,8 15,9 11 6 18 10 NW 1028,9 0,0
23.06.2018 08:00:00 13,6 10,3 14,0 14,8 15,9 15,9 14 8 18 10 NW 1028,9 0,0
23.06.2018 07:00:00 10,5 9,2 9,2 14,8 16,1 15,9 4 2 11 6 W 1028,9 0,0
23.06.2018 06:00:00 7,5 6,6 6,1 15,0 16,2 15,9 7 4 11 6 W 1028,9 0,0
23.06.2018 05:00:00 6,8 5,8 5,4 15,2 16,4 15,9 7 4 11 6 W 1028,8 0,0
23.06.2018 04:00:00 7,4 6,4 5,9 15,4 16,5 15,9 7 4 11 6 WSW 1029,0 0,0
23.06.2018 03:00:00 7,2 6,0 5,8 15,7 16,7 15,9 7 4 11 6 WSW 1029,1 0,0
23.06.2018 02:00:00 7,5 5,9 5,6 15,9 16,9 15,9 7 4 11 6 W 1029,3 0,0
23.06.2018 01:00:00 8,0 5,9 5,8 16,3 17,0 15,9 7 4 11 6 WNW 1029,6 0,0
23.06.2018 00:00:00 9,4 7,0 8,0 16,6 17,2 15,9 11 6 22 12 NW 1029,8 0,0
22.06.2018 23:00:00 11,1 7,5 10,6 16,9 17,3 15,9 14 8 22 12 NNW 1030,1 0,0
22.06.2018 22:00:00 12,0 6,9 11,2 17,1 17,3 15,9 14 8 32 18 N 1029,6 0,0
22.06.2018 21:00:00 13,1 7,4 12,9 17,3 17,4 15,9 25 14 32 18 N 1029,5 0,0
22.06.2018 20:00:00 13,4 8,5 13,2 17,4 17,4 15,9 25 14 36 19 NNW 1029,6 0,0
22.06.2018 19:00:00 13,3 8,9 13,3 17,5 17,4 15,9 25 14 36 19 NNW 1029,7 0,0
22.06.2018 18:00:00 13,6 9,0 13,8 17,6 17,3 15,9 25 14 43 23 NNW 1029,5 0,0
22.06.2018 17:00:00 13,7 9,0 14,0 17,5 17,2 15,9 25 14 40 21 NNW 1029,4 0,0
22.06.2018 16:00:00 14,6 9,1 14,9 17,4 17,2 15,9 25 14 36 19 NNW 1029,3 0,0
22.06.2018 15:00:00 13,7 8,9 13,7 17,4 17,1 15,9 25 14 43 23 NNW 1029,2 0,0
22.06.2018 14:00:00 13,8 8,2 14,2 17,3 17,0 15,9 25 14 43 23 NNW 1029,1 0,0
22.06.2018 13:00:00 14,6 8,2 15,4 17,0 16,9 15,9 29 16 43 23 NNW 1028,7 0,0
22.06.2018 12:00:00 14,6 7,5 15,0 16,7 16,8 15,9 29 16 47 25 NNW 1028,4 0,0
22.06.2018 11:00:00 13,8 7,6 14,0 16,4 16,8 15,9 32 18 47 25 NNW 1028,4 0,0
22.06.2018 10:00:00 14,2 7,2 14,6 16,2 16,8 15,9 32 18 54 29 NNW 1028,0 0,0
22.06.2018 09:00:00 14,9 8,6 15,4 16,1 16,9 15,9 32 18 47 25 NW 1027,0 0,0
22.06.2018 08:00:00 14,0 7,4 13,6 16,1 16,9 15,9 29 16 50 27 NW 1026,9 0,0
22.06.2018 07:00:00 14,0 7,1 13,3 16,1 17,1 15,9 29 16 47 25 NW 1026,6 0,0
22.06.2018 06:00:00 13,7 7,2 13,0 16,2 17,2 15,9 29 16 47 25 NW 1026,5 0,0
22.06.2018 05:00:00 12,9 7,1 11,6 16,4 17,4 15,9 25 14 36 19 WNW 1026,5 0,0
22.06.2018 04:00:00 11,7 7,5 10,7 16,6 17,5 15,9 14 8 32 18 WNW 1026,4 0,0
22.06.2018 03:00:00 12,1 7,0 11,4 16,8 17,7 15,9 18 10 36 19 NW 1026,5 0,0
22.06.2018 02:00:00 11,8 7,6 10,7 17,0 17,9 15,9 18 10 29 16 NW 1026,8 0,0
22.06.2018 01:00:00 11,5 6,7 10,5 17,2 18,0 15,9 14 8 29 16 NW 1027,1 0,0
22.06.2018 00:00:00 10,8 6,8 8,7 17,5 18,2 15,9 14 8 22 12 NW 1027,2 0,0
21.06.2018 23:00:00 10,1 6,4 9,1 17,9 18,4 15,9 14 8 29 16 NW 1027,1 0,0
21.06.2018 22:00:00 11,4 5,5 10,8 18,3 18,5 15,9 22 12 36 19 NNW 1027,3 0,0
21.06.2018 21:00:00 12,3 6,7 12,0 18,6 18,6 15,9 25 14 40 21 NNW 1027,0 0,0
21.06.2018 20:00:00 13,1 6,7 13,2 18,9 18,7 15,9 29 16 47 25 NW 1026,7 0,0
21.06.2018 19:00:00 13,8 7,3 13,7 19,1 18,7 15,9 29 16 47 25 NW 1026,5 0,0
21.06.2018 18:00:00 13,1 7,3 13,3 19,2 18,6 15,9 32 18 50 27 NW 1026,1 0,0
21.06.2018 17:00:00 14,4 8,7 14,2 19,3 18,6 15,9 32 18 50 27 NNW 1025,4 0,0
21.06.2018 16:00:00 13,3 8,0 12,9 19,4 18,4 15,9 36 19 50 27 NNW 1025,1 0,0
21.06.2018 15:00:00 15,0 7,8 16,3 19,1 18,3 15,9 36 19 54 29 NW 1024,4 0,0
21.06.2018 14:00:00 14,4 7,1 15,4 18,8 18,2 15,9 36 19 54 29 NW 1023,7 0,0
21.06.2018 13:00:00 14,8 6,9 15,9 18,4 18,1 15,9 40 21 54 29 NW 1023,2 0,0
21.06.2018 12:00:00 14,2 8,1 15,2 18,2 18,0 15,9 32 18 47 25 NW 1022,5 0,0
21.06.2018 11:00:00 15,2 8,5 15,8 17,9 18,0 15,9 36 19 50 27 NNW 1021,7 0,0
21.06.2018 10:00:00 15,0 8,2 15,7 17,8 18,1 15,9 32 18 50 27 NW 1020,7 0,0
21.06.2018 09:00:00 14,5 7,8 14,8 17,8 18,2 15,9 32 18 54 29 NNW 1020,1 0,0
21.06.2018 08:00:00 13,8 9,2 13,8 18,0 18,3 15,9 29 16 47 25 NW 1019,0 0,0
21.06.2018 07:00:00 14,5 11,3 14,3 18,2 18,4 15,9 32 18 43 23 NW 1018,3 0,0
21.06.2018 06:00:00 15,1 13,6 15,0 18,3 18,5 15,9 25 14 36 19 NW 1017,5 0,0
21.06.2018 05:00:00 15,9 14,5 15,8 18,5 18,6 15,9 18 10 29 16 WNW 1017,0 0,0
21.06.2018 04:00:00 16,5 15,1 16,3 18,6 18,7 15,9 14 8 25 14 W 1017,0 0,0
21.06.2018 03:00:00 16,5 15,2 16,5 18,7 18,8 15,9 22 12 32 18 W 1016,9 0,0
21.06.2018 02:00:00 16,9 15,2 16,8 18,9 18,9 15,9 18 10 32 18 W 1017,1 0,0
21.06.2018 01:00:00 17,4 15,3 16,9 19,1 19,0 15,9 18 10 29 16 WSW 1017,3 0,0
21.06.2018 00:00:00 17,1 15,1 16,5 19,4 19,1 15,9 11 6 22 12 W 1017,8 0,0
20.06.2018 23:00:00 17,7 15,3 16,8 19,7 19,2 15,9 14 8 25 14 W 1018,1 0,0
20.06.2018 22:00:00 18,8 15,4 18,1 20,1 19,2 15,9 14 8 22 12 W 1017,9 0,0
20.06.2018 21:00:00 20,3 15,6 20,0 20,5 19,2 15,9 18 10 32 18 W 1018,2 0,0
20.06.2018 20:00:00 21,9 15,9 22,2 20,7 19,1 15,9 18 10 25 14 W 1018,6 0,0
20.06.2018 19:00:00 21,4 16,3 22,7 20,8 18,9 15,9 18 10 29 16 W 1018,9 0,0
20.06.2018 18:00:00 24,2 16,7 25,6 20,7 18,6 15,9 18 10 32 18 W 1019,1 0,0
20.06.2018 17:00:00 24,3 16,6 26,4 20,4 18,2 15,9 22 12 29 16 WSW 1019,7 0,0
20.06.2018 16:00:00 24,0 16,3 26,1 19,8 17,9 15,9 22 12 36 19 WSW 1020,0 0,0
20.06.2018 15:00:00 23,2 16,5 25,3 19,1 17,6 15,9 18 10 29 16 SW 1020,4 0,0
20.06.2018 14:00:00 22,0 16,1 24,3 18,2 17,4 15,9 22 12 32 18 WSW 1021,0 0,0
20.06.2018 13:00:00 19,6 15,7 20,5 17,7 17,3 15,9 18 10 25 14 SW 1021,7 0,0
20.06.2018 12:00:00 18,1 15,5 18,9 17,5 17,2 15,9 11 6 29 16 SW 1022,0 0,0
20.06.2018 11:00:00 17,2 15,2 17,8 17,3 17,2 15,9 14 8 25 14 SW 1022,0 0,0
20.06.2018 10:00:00 16,8 15,3 17,1 17,1 17,2 15,9 14 8 25 14 SSW 1022,3 0,0
20.06.2018 09:00:00 16,7 15,0 16,7 17,0 17,2 15,9 14 8 22 12 SW 1022,2 0,0
20.06.2018 08:00:00 16,4 14,8 16,3 16,9 17,3 15,9 14 8 22 12 SW 1022,1 0,0
20.06.2018 07:00:00 16,0 14,8 15,8 16,9 17,3 15,9 11 6 18 10 SW 1022,2 0,0
20.06.2018 06:00:00 15,3 14,5 14,8 16,9 17,4 15,9 11 6 18 10 SSW 1022,3 0,0
20.06.2018 05:00:00 14,5 14,0 14,1 17,0 17,5 15,9 11 6 18 10 SSW 1022,3 0,0
20.06.2018 04:00:00 15,0 14,2 14,5 17,2 17,6 15,9 14 8 22 12 SSW 1022,7 0,0
20.06.2018 03:00:00 15,2 14,2 14,5 17,3 17,7 15,9 11 6 14 8 SSW 1023,0 0,0
20.06.2018 02:00:00 15,3 14,5 14,6 17,5 17,9 15,9 7 4 14 8 SW 1023,3 0,0
20.06.2018 01:00:00 15,5 14,8 14,1 17,7 18,0 15,9 7 4 11 6 SSW 1023,6 0,0
20.06.2018 00:00:00 14,8 14,5 12,2 18,0 18,1 15,9 4 2 4 2 SSW 1023,9 0,0
19.06.2018 23:00:00 14,8 13,5 13,8 18,4 18,1 15,9 4 2 7 4 S 1024,1 0,0
19.06.2018 22:00:00 16,9 15,3 16,1 18,7 18,1 15,9 4 2 18 10 WSW 1023,7 0,0
19.06.2018 21:00:00 19,7 15,9 19,6 18,8 18,1 15,9 11 6 18 10 SW 1023,6 0,0

tt = Température de l'air
td = dewpoint
tt 5cm = Température de l'air 5cm
tt -5cm = Température de l'air -5cm
tt -20cm = Température de l'air -20cm
tt -100cm = Température de l'air -100cm
ff = Vitesse du vent
fx = gusts
dd = Direction du vent
ppp = reduced air pressure
rr = Quantités de précipitations

stations d'obs. à proximité